Weather History for 94203 - April, 2014

Change the Weather History Date:

Monday, April 14, 2014

  Actual Average Record
Temperature  
Mean Temperature 82 °F -  
Max Temperature 93 °F 92 °F - ()
Min Temperature 71 °F 69 °F - ()
Cooling Degree Days 17    
Growing Degree Days 32 (Base 50)    
Moisture  
Dew Point 64 °F    
Average Humidity 55    
Maximum Humidity 100    
Minimum Humidity 16    
Precipitation  
Precipitation 0.00 in 0.03 in - ()
Sea Level Pressure  
Sea Level Pressure 29.84 in    
Wind  
Wind Speed 9 mph ()    
Max Wind Speed 15 mph    
Max Gust Speed -    
Visibility 6.2 miles    
Events      
T = Trace of Precipitation, MM = Missing Value Source: Averaged Metar Reports

Daily Weather History Graph

Daily Weather History Graph

Search for Another Location

Airport or City:

Trip Planner

Search our weather history database for the weather conditions in past years. The results will help you decide how hot, cold, wet, or windy it might be!

Date:

Astronomy

Apr. 14, 2014 Rise Set
Actual Time 6:00 AM AWST 5:42 PM AWST
Civil Twilight 5:38 AM AWST 6:04 PM AWST
Nautical Twilight 5:12 AM AWST 6:29 PM AWST
Astronomical Twilight 4:47 AM AWST 6:55 PM AWST
Moon 4:58 PM AWST (4/14) 4:49 AM AWST (4/14)
Length of Visible Light 12h 26m
Length of Day
11h 42m
Waxing Gibbous, 99% of the Moon is Illuminated
Apr 14
Waxing Gibbous
Apr 15
Full
Apr 22
Last Quarter
Apr 29
New
May 7
First Quarter

Hourly Weather History & Observations

Time (AWST) Temp. Heat Index Dew Point Humidity Pressure Visibility Wind Dir Wind Speed Gust Speed Precip Events Conditions
12:00 AM 84 °F - 80 °F 85% 29.85 in - ESE 10.4 mph - -  
12:00 AM 84.2 °F 98.3 °F 80.6 °F 89% 29.83 in 6.2 mi ESE 10.4 mph - N/A   Unknown
12:30 AM 78.8 °F - 78.8 °F 100% 29.83 in 6.2 mi East 9.2 mph - N/A   Unknown
1:00 AM 77.0 °F - 75.2 °F 94% 29.83 in 6.2 mi ESE 6.9 mph - N/A   Unknown
1:30 AM 82.4 °F 90.9 °F 77.0 °F 84% 29.83 in 6.2 mi ESE 10.4 mph - N/A   Unknown
2:00 AM 80 °F - 80 °F 100% 29.83 in - ESE 12.7 mph - -  
2:00 AM 80.6 °F 89.3 °F 80.6 °F 100% 29.83 in 6.2 mi ESE 12.7 mph - N/A   Unknown
2:30 AM 78.8 °F - 78.8 °F 100% 29.83 in 6.2 mi ESE 12.7 mph - N/A   Unknown
3:00 AM 78 °F - 77 °F 97% 29.83 in - ESE 11.5 mph - -  
3:00 AM 77.0 °F - 77.0 °F 100% 29.83 in 6.2 mi ESE 11.5 mph - N/A   Unknown
3:30 AM 75.2 °F - 75.2 °F 100% 29.83 in 6.2 mi East 9.2 mph - N/A   Unknown
4:00 AM 75.2 °F - 75.2 °F 100% 29.83 in 6.2 mi East 10.4 mph - N/A   Unknown
4:30 AM 75.2 °F - 75.2 °F 100% 29.83 in 6.2 mi ESE 12.7 mph - N/A   Unknown
5:00 AM 75 °F - 74 °F 98% 29.85 in - ESE 11.5 mph - -  
5:00 AM 75.2 °F - 75.2 °F 100% 29.83 in 6.2 mi ESE 11.5 mph - N/A   Unknown
5:30 AM 73.4 °F - 73.4 °F 100% 29.83 in - ESE 10.4 mph - N/A   Clear
6:00 AM 72 °F - 50 °F 35% 29.86 in 25 mi East 8.1 mph - -   Partly Cloudy
6:00 AM 71.6 °F - 50.0 °F 46% 29.86 in - East 8.1 mph - N/A   Clear
6:30 AM 71.6 °F - 51.8 °F 50% 29.86 in - East 8.1 mph - N/A   Clear
7:00 AM 75.2 °F - 53.6 °F 47% 29.86 in - ESE 8.1 mph - N/A   Clear
7:30 AM 77.0 °F - 53.6 °F 44% 29.86 in - East 10.4 mph - N/A   Clear
8:00 AM 79 °F - 53 °F 29% 29.89 in - ESE 11.5 mph - -  
8:00 AM 78.8 °F - 53.6 °F 42% 29.89 in - ESE 11.5 mph - N/A   Clear
8:30 AM 80.6 °F 80.5 °F 55.4 °F 42% 29.89 in - ESE 12.7 mph - N/A   Clear
9:00 AM 84 °F - 54 °F 25% 29.89 in 25 mi ESE 10.4 mph - -   Partly Cloudy
9:00 AM 84.2 °F 82.8 °F 53.6 °F 35% 29.89 in - ESE 10.4 mph - N/A   Clear
9:30 AM 87.8 °F - 51.8 °F 29% 29.89 in - East 13.8 mph - N/A   Clear
10:00 AM 89.6 °F 87.3 °F 53.6 °F 29% 29.86 in - East 13.8 mph - N/A   Clear
10:30 AM 89.6 °F 87.3 °F 53.6 °F 29% 29.86 in 6.2 mi East 15.0 mph - N/A   Unknown
11:00 AM 90 °F - 56 °F 21% 29.86 in - East 15.0 mph - -  
11:00 AM 89.6 °F 87.7 °F 55.4 °F 31% 29.86 in 6.2 mi East 15.0 mph - N/A   Unknown
11:30 AM 91.4 °F 98.4 °F 71.6 °F 52% 29.86 in 6.2 mi East 15.0 mph - N/A   Unknown
12:00 PM 91 °F - 80 °F 63% 29.84 in - ESE 12.7 mph - -  
12:00 PM 91.4 °F 111.0 °F 80.6 °F 71% 29.83 in 6.2 mi ESE 12.7 mph - N/A   Unknown
12:30 PM 93.2 °F 136.0 °F 89.6 °F 89% 29.83 in 6.2 mi ESE 12.7 mph - N/A   Unknown
1:00 PM 91.4 °F 132.6 °F 89.6 °F 94% 29.80 in - SE 10.4 mph - N/A   Clear
1:30 PM 93.2 °F 91.3 °F 55.4 °F 28% 29.80 in - SE 10.4 mph - N/A   Clear
2:00 PM 92 °F - 54 °F 19% 29.80 in - SE 8.1 mph - -  
2:00 PM 91.4 °F 89.4 °F 55.4 °F 29% 29.80 in - SE 8.1 mph - N/A   Clear
2:30 PM 93.2 °F - 51.8 °F 24% 29.77 in - SSE 9.2 mph - N/A   Clear
3:00 PM 92 °F - 52 °F 16% 29.79 in 25 mi South 8.1 mph - -   Smoke
3:00 PM 91.4 °F - 51.8 °F 26% 29.77 in - South 8.1 mph - N/A   Clear
3:30 PM 93.2 °F - 51.8 °F 24% 29.77 in - South 8.1 mph - N/A   Clear
4:00 PM 91.4 °F - 51.8 °F 26% 29.77 in - South 5.8 mph - N/A   Clear
4:30 PM 91.4 °F 89.1 °F 53.6 °F 28% 29.77 in - SSE 5.8 mph - N/A   Clear
5:00 PM 91 °F - 56 °F 21% 29.80 in - South 5.8 mph - -  
5:00 PM 91.4 °F 89.4 °F 55.4 °F 29% 29.80 in - South 5.8 mph - N/A   Clear
5:30 PM 89.6 °F 88.9 °F 59.0 °F 36% 29.80 in - South 4.6 mph - N/A   Clear
6:00 PM 86 °F - 65 °F 40% 29.82 in 25 mi SW 8.1 mph - -   Smoke
6:00 PM 86.0 °F 87.3 °F 64.4 °F 48% 29.80 in - SW 8.1 mph - N/A   Clear
6:30 PM 86.0 °F 87.3 °F 64.4 °F 48% 29.83 in - SW 8.1 mph - N/A   Clear
7:00 PM 84.2 °F 85.6 °F 64.4 °F 51% 29.83 in - SW 8.1 mph - N/A   Clear
7:30 PM 84.2 °F 86.6 °F 66.2 °F 55% 29.86 in - SSW 6.9 mph - N/A   Clear
8:00 PM 85 °F - 65 °F 41% 29.86 in - SSW 8.1 mph - -  
8:00 PM 84.2 °F 85.6 °F 64.4 °F 51% 29.86 in - SSW 8.1 mph - N/A   Clear
8:30 PM 84.2 °F 86.6 °F 66.2 °F 55% 29.86 in - SSW 6.9 mph - N/A   Clear
9:00 PM 84 °F - 67 °F 48% 29.88 in 25 mi South 5.8 mph - -   Partly Cloudy
9:00 PM 84.2 °F 87.3 °F 68.0 °F 58% 29.86 in - South 5.8 mph - N/A   Clear
9:30 PM 84.2 °F 86.6 °F 66.2 °F 55% 29.89 in 6.2 mi South 5.8 mph - N/A   Unknown
10:00 PM 82.4 °F 82.5 °F 59.0 °F 45% 29.89 in 6.2 mi ESE 6.9 mph - N/A   Unknown
10:30 PM 80.6 °F 80.3 °F 53.6 °F 39% 29.89 in 6.2 mi ESE 6.9 mph - N/A   Unknown
11:00 PM 79 °F - 56 °F 35% 29.89 in - East 4.6 mph - -  
11:00 PM 78.8 °F - 57.2 °F 47% 29.89 in 6.2 mi East 4.6 mph - N/A   Unknown
11:30 PM 77.0 °F - 55.4 °F 47% 29.89 in 6.2 mi ESE 5.8 mph - N/A   Unknown